sensor_id;sensor_type;location;lat;lon;timestamp;P1;durP1;ratioP1;P2;durP2;ratioP2
64795;SDS011;51229;51.980;6.722;2023-03-14T00:02:16;5.47;;;1.88;;
64795;SDS011;51229;51.980;6.722;2023-03-14T00:04:42;7.97;;;2.40;;
64795;SDS011;51229;51.980;6.722;2023-03-14T00:07:07;5.05;;;1.92;;
64795;SDS011;51229;51.980;6.722;2023-03-14T00:09:35;6.05;;;1.70;;
64795;SDS011;51229;51.980;6.722;2023-03-14T00:12:02;6.75;;;1.85;;
64795;SDS011;51229;51.980;6.722;2023-03-14T00:14:29;8.10;;;2.30;;
64795;SDS011;51229;51.980;6.722;2023-03-14T00:16:56;6.07;;;2.17;;
64795;SDS011;51229;51.980;6.722;2023-03-14T00:19:21;5.20;;;1.60;;
64795;SDS011;51229;51.980;6.722;2023-03-14T00:21:47;6.80;;;1.80;;
64795;SDS011;51229;51.980;6.722;2023-03-14T00:24:13;5.65;;;1.85;;
64795;SDS011;51229;51.980;6.722;2023-03-14T00:26:39;5.80;;;2.00;;
64795;SDS011;51229;51.980;6.722;2023-03-14T00:29:05;4.38;;;1.95;;
64795;SDS011;51229;51.980;6.722;2023-03-14T00:31:31;6.82;;;1.70;;
64795;SDS011;51229;51.980;6.722;2023-03-14T00:33:56;5.40;;;1.75;;
64795;SDS011;51229;51.980;6.722;2023-03-14T00:36:23;7.93;;;2.28;;
64795;SDS011;51229;51.980;6.722;2023-03-14T00:38:49;6.78;;;2.00;;
64795;SDS011;51229;51.980;6.722;2023-03-14T00:41:17;5.43;;;2.08;;
64795;SDS011;51229;51.980;6.722;2023-03-14T00:43:46;6.35;;;2.00;;
64795;SDS011;51229;51.980;6.722;2023-03-14T00:46:12;8.13;;;2.05;;
64795;SDS011;51229;51.980;6.722;2023-03-14T00:48:38;5.47;;;2.03;;
64795;SDS011;51229;51.980;6.722;2023-03-14T00:51:04;7.32;;;2.10;;
64795;SDS011;51229;51.980;6.722;2023-03-14T00:53:30;6.53;;;2.10;;
64795;SDS011;51229;51.980;6.722;2023-03-14T00:56:01;6.78;;;2.20;;
64795;SDS011;51229;51.980;6.722;2023-03-14T00:58:28;6.93;;;1.95;;
64795;SDS011;51229;51.980;6.722;2023-03-14T01:00:54;5.55;;;1.60;;
64795;SDS011;51229;51.980;6.722;2023-03-14T01:03:20;5.57;;;1.63;;
64795;SDS011;51229;51.980;6.722;2023-03-14T01:05:48;3.13;;;1.90;;
64795;SDS011;51229;51.980;6.722;2023-03-14T01:08:14;6.57;;;1.92;;
64795;SDS011;51229;51.980;6.722;2023-03-14T01:10:40;5.20;;;1.70;;
64795;SDS011;51229;51.980;6.722;2023-03-14T01:13:07;5.90;;;2.30;;
64795;SDS011;51229;51.980;6.722;2023-03-14T01:15:35;7.38;;;2.40;;
64795;SDS011;51229;51.980;6.722;2023-03-14T01:18:01;7.25;;;2.05;;
64795;SDS011;51229;51.980;6.722;2023-03-14T01:20:28;8.00;;;2.20;;
64795;SDS011;51229;51.980;6.722;2023-03-14T01:22:53;4.25;;;1.60;;
64795;SDS011;51229;51.980;6.722;2023-03-14T01:25:19;5.50;;;2.05;;
64795;SDS011;51229;51.980;6.722;2023-03-14T01:27:46;6.97;;;2.10;;
64795;SDS011;51229;51.980;6.722;2023-03-14T01:30:12;9.32;;;2.03;;
64795;SDS011;51229;51.980;6.722;2023-03-14T01:32:38;4.65;;;1.73;;
64795;SDS011;51229;51.980;6.722;2023-03-14T01:35:04;6.05;;;1.95;;
64795;SDS011;51229;51.980;6.722;2023-03-14T01:37:30;6.45;;;1.98;;
64795;SDS011;51229;51.980;6.722;2023-03-14T01:39:56;6.50;;;1.80;;
64795;SDS011;51229;51.980;6.722;2023-03-14T01:42:21;7.20;;;1.83;;
64795;SDS011;51229;51.980;6.722;2023-03-14T01:47:18;7.75;;;2.38;;
64795;SDS011;51229;51.980;6.722;2023-03-14T01:49:45;7.97;;;2.10;;
64795;SDS011;51229;51.980;6.722;2023-03-14T01:52:16;7.07;;;1.65;;
64795;SDS011;51229;51.980;6.722;2023-03-14T01:54:50;6.40;;;2.28;;
64795;SDS011;51229;51.980;6.722;2023-03-14T01:59:50;4.05;;;1.38;;
64795;SDS011;51229;51.980;6.722;2023-03-14T02:02:39;4.95;;;1.83;;
64795;SDS011;51229;51.980;6.722;2023-03-14T02:05:12;2.50;;;1.20;;
64795;SDS011;51229;51.980;6.722;2023-03-14T02:07:49;6.75;;;1.60;;
64795;SDS011;51229;51.980;6.722;2023-03-14T02:10:24;4.32;;;1.20;;
64795;SDS011;51229;51.980;6.722;2023-03-14T02:12:53;5.25;;;1.35;;
64795;SDS011;51229;51.980;6.722;2023-03-14T02:15:38;3.30;;;1.13;;
64795;SDS011;51229;51.980;6.722;2023-03-14T02:18:10;4.13;;;1.30;;
64795;SDS011;51229;51.980;6.722;2023-03-14T02:24:03;5.03;;;1.33;;
64795;SDS011;51229;51.980;6.722;2023-03-14T02:29:53;3.72;;;1.17;;
64795;SDS011;51229;51.980;6.722;2023-03-14T02:32:26;8.07;;;1.38;;
64795;SDS011;51229;51.980;6.722;2023-03-14T02:34:55;6.30;;;1.20;;
64795;SDS011;51229;51.980;6.722;2023-03-14T02:37:25;4.03;;;1.27;;
64795;SDS011;51229;51.980;6.722;2023-03-14T02:39:57;4.28;;;1.30;;
64795;SDS011;51229;51.980;6.722;2023-03-14T02:42:24;4.05;;;1.08;;
64795;SDS011;51229;51.980;6.722;2023-03-14T02:44:52;5.68;;;1.38;;
64795;SDS011;51229;51.980;6.722;2023-03-14T02:47:20;3.72;;;1.20;;
64795;SDS011;51229;51.980;6.722;2023-03-14T02:49:52;4.95;;;1.90;;
64795;SDS011;51229;51.980;6.722;2023-03-14T02:52:21;5.20;;;1.15;;
64795;SDS011;51229;51.980;6.722;2023-03-14T02:54:47;4.43;;;1.00;;
64795;SDS011;51229;51.980;6.722;2023-03-14T02:57:12;4.50;;;1.05;;
64795;SDS011;51229;51.980;6.722;2023-03-14T02:59:38;8.60;;;1.38;;
64795;SDS011;51229;51.980;6.722;2023-03-14T03:02:12;7.07;;;1.52;;
64795;SDS011;51229;51.980;6.722;2023-03-14T03:04:37;6.03;;;1.20;;
64795;SDS011;51229;51.980;6.722;2023-03-14T03:07:03;7.53;;;1.40;;
64795;SDS011;51229;51.980;6.722;2023-03-14T03:09:29;5.43;;;1.50;;
64795;SDS011;51229;51.980;6.722;2023-03-14T03:11:55;4.90;;;1.67;;
64795;SDS011;51229;51.980;6.722;2023-03-14T03:14:23;5.68;;;1.67;;
64795;SDS011;51229;51.980;6.722;2023-03-14T03:16:49;5.78;;;1.23;;
64795;SDS011;51229;51.980;6.722;2023-03-14T03:19:15;4.95;;;1.15;;
64795;SDS011;51229;51.980;6.722;2023-03-14T03:21:42;4.93;;;1.40;;
64795;SDS011;51229;51.980;6.722;2023-03-14T03:24:11;5.68;;;2.08;;
64795;SDS011;51229;51.980;6.722;2023-03-14T03:26:36;3.15;;;1.20;;
64795;SDS011;51229;51.980;6.722;2023-03-14T03:29:04;3.97;;;1.40;;
64795;SDS011;51229;51.980;6.722;2023-03-14T03:31:30;3.70;;;1.30;;
64795;SDS011;51229;51.980;6.722;2023-03-14T03:33:56;5.00;;;1.20;;
64795;SDS011;51229;51.980;6.722;2023-03-14T03:36:24;5.53;;;1.48;;
64795;SDS011;51229;51.980;6.722;2023-03-14T03:38:50;3.30;;;1.02;;
64795;SDS011;51229;51.980;6.722;2023-03-14T03:41:17;6.45;;;1.45;;
64795;SDS011;51229;51.980;6.722;2023-03-14T03:43:42;8.57;;;1.30;;
64795;SDS011;51229;51.980;6.722;2023-03-14T03:46:10;7.00;;;1.42;;
64795;SDS011;51229;51.980;6.722;2023-03-14T03:48:36;3.40;;;1.33;;
64795;SDS011;51229;51.980;6.722;2023-03-14T03:51:03;6.55;;;1.40;;
64795;SDS011;51229;51.980;6.722;2023-03-14T03:53:30;6.13;;;1.67;;
64795;SDS011;51229;51.980;6.722;2023-03-14T03:55:56;4.72;;;1.50;;
64795;SDS011;51229;51.980;6.722;2023-03-14T03:58:21;6.70;;;1.45;;
64795;SDS011;51229;51.980;6.722;2023-03-14T04:00:47;6.68;;;1.60;;
64795;SDS011;51229;51.980;6.722;2023-03-14T04:03:13;8.45;;;1.52;;
64795;SDS011;51229;51.980;6.722;2023-03-14T04:05:39;5.50;;;1.55;;
64795;SDS011;51229;51.980;6.722;2023-03-14T04:08:07;5.00;;;1.20;;
64795;SDS011;51229;51.980;6.722;2023-03-14T04:10:34;7.60;;;1.40;;
64795;SDS011;51229;51.980;6.722;2023-03-14T04:13:07;5.38;;;1.27;;
64795;SDS011;51229;51.980;6.722;2023-03-14T04:15:34;3.33;;;1.00;;
64795;SDS011;51229;51.980;6.722;2023-03-14T04:18:05;6.15;;;1.30;;
64795;SDS011;51229;51.980;6.722;2023-03-14T04:20:33;4.97;;;1.30;;
64795;SDS011;51229;51.980;6.722;2023-03-14T04:23:00;8.55;;;1.55;;
64795;SDS011;51229;51.980;6.722;2023-03-14T04:25:26;8.43;;;1.70;;
64795;SDS011;51229;51.980;6.722;2023-03-14T04:27:55;4.55;;;1.20;;
64795;SDS011;51229;51.980;6.722;2023-03-14T04:30:23;7.45;;;1.58;;
64795;SDS011;51229;51.980;6.722;2023-03-14T04:32:56;5.35;;;0.98;;
64795;SDS011;51229;51.980;6.722;2023-03-14T04:35:24;7.18;;;1.58;;
64795;SDS011;51229;51.980;6.722;2023-03-14T04:37:53;7.43;;;1.67;;
64795;SDS011;51229;51.980;6.722;2023-03-14T04:40:20;8.02;;;1.55;;
64795;SDS011;51229;51.980;6.722;2023-03-14T04:42:48;6.82;;;1.40;;
64795;SDS011;51229;51.980;6.722;2023-03-14T04:45:14;7.43;;;1.90;;
64795;SDS011;51229;51.980;6.722;2023-03-14T04:47:41;8.43;;;1.55;;
64795;SDS011;51229;51.980;6.722;2023-03-14T04:50:10;4.72;;;0.98;;
64795;SDS011;51229;51.980;6.722;2023-03-14T04:52:37;5.20;;;1.50;;
64795;SDS011;51229;51.980;6.722;2023-03-14T04:55:03;5.63;;;1.27;;
64795;SDS011;51229;51.980;6.722;2023-03-14T04:57:29;7.18;;;1.65;;
64795;SDS011;51229;51.980;6.722;2023-03-14T04:59:57;5.70;;;1.30;;
64795;SDS011;51229;51.980;6.722;2023-03-14T05:02:39;6.25;;;1.73;;
64795;SDS011;51229;51.980;6.722;2023-03-14T05:05:13;7.75;;;1.50;;
64795;SDS011;51229;51.980;6.722;2023-03-14T05:08:00;6.78;;;1.42;;
64795;SDS011;51229;51.980;6.722;2023-03-14T05:10:45;6.22;;;1.27;;
64795;SDS011;51229;51.980;6.722;2023-03-14T05:13:37;7.90;;;1.30;;
64795;SDS011;51229;51.980;6.722;2023-03-14T05:16:19;5.75;;;1.42;;
64795;SDS011;51229;51.980;6.722;2023-03-14T05:18:50;5.22;;;1.40;;
64795;SDS011;51229;51.980;6.722;2023-03-14T05:21:39;6.45;;;1.65;;
64795;SDS011;51229;51.980;6.722;2023-03-14T05:24:17;8.02;;;1.20;;
64795;SDS011;51229;51.980;6.722;2023-03-14T05:27:01;5.97;;;1.52;;
64795;SDS011;51229;51.980;6.722;2023-03-14T05:29:56;6.30;;;1.30;;
64795;SDS011;51229;51.980;6.722;2023-03-14T05:32:27;9.13;;;1.55;;
64795;SDS011;51229;51.980;6.722;2023-03-14T05:35:18;5.22;;;1.48;;
64795;SDS011;51229;51.980;6.722;2023-03-14T05:38:00;6.45;;;1.30;;
64795;SDS011;51229;51.980;6.722;2023-03-14T05:40:44;6.03;;;1.70;;
64795;SDS011;51229;51.980;6.722;2023-03-14T05:43:16;5.40;;;1.08;;
64795;SDS011;51229;51.980;6.722;2023-03-14T05:46:08;3.83;;;1.25;;
64795;SDS011;51229;51.980;6.722;2023-03-14T05:48:47;6.57;;;1.00;;
64795;SDS011;51229;51.980;6.722;2023-03-14T05:51:33;5.95;;;1.25;;
64795;SDS011;51229;51.980;6.722;2023-03-14T05:54:09;5.57;;;1.10;;
64795;SDS011;51229;51.980;6.722;2023-03-14T05:56:57;2.55;;;0.82;;
64795;SDS011;51229;51.980;6.722;2023-03-14T05:59:35;3.47;;;0.80;;
64795;SDS011;51229;51.980;6.722;2023-03-14T06:02:11;4.05;;;1.20;;
64795;SDS011;51229;51.980;6.722;2023-03-14T06:04:47;4.53;;;1.20;;
64795;SDS011;51229;51.980;6.722;2023-03-14T06:07:14;2.67;;;1.10;;
64795;SDS011;51229;51.980;6.722;2023-03-14T06:09:40;3.50;;;0.80;;
64795;SDS011;51229;51.980;6.722;2023-03-14T06:12:06;2.80;;;1.02;;
64795;SDS011;51229;51.980;6.722;2023-03-14T06:14:38;2.70;;;1.00;;
64795;SDS011;51229;51.980;6.722;2023-03-14T06:17:05;2.55;;;0.85;;
64795;SDS011;51229;51.980;6.722;2023-03-14T06:19:38;3.15;;;1.17;;
64795;SDS011;51229;51.980;6.722;2023-03-14T06:22:05;2.70;;;1.08;;
64795;SDS011;51229;51.980;6.722;2023-03-14T06:24:36;2.97;;;1.00;;
64795;SDS011;51229;51.980;6.722;2023-03-14T06:27:03;1.73;;;0.60;;
64795;SDS011;51229;51.980;6.722;2023-03-14T06:29:29;5.30;;;1.63;;
64795;SDS011;51229;51.980;6.722;2023-03-14T06:31:55;3.03;;;1.13;;
64795;SDS011;51229;51.980;6.722;2023-03-14T06:34:28;3.25;;;1.10;;
64795;SDS011;51229;51.980;6.722;2023-03-14T06:37:01;2.67;;;0.90;;
64795;SDS011;51229;51.980;6.722;2023-03-14T06:39:27;2.00;;;0.93;;
64795;SDS011;51229;51.980;6.722;2023-03-14T06:42:01;5.30;;;1.67;;
64795;SDS011;51229;51.980;6.722;2023-03-14T06:44:30;4.82;;;1.55;;
64795;SDS011;51229;51.980;6.722;2023-03-14T06:47:05;5.53;;;1.70;;
64795;SDS011;51229;51.980;6.722;2023-03-14T06:49:32;5.88;;;1.70;;
64795;SDS011;51229;51.980;6.722;2023-03-14T06:52:01;4.20;;;1.30;;
64795;SDS011;51229;51.980;6.722;2023-03-14T06:54:31;3.88;;;1.90;;
64795;SDS011;51229;51.980;6.722;2023-03-14T06:56:57;3.60;;;1.20;;
64795;SDS011;51229;51.980;6.722;2023-03-14T06:59:23;3.60;;;1.65;;
64795;SDS011;51229;51.980;6.722;2023-03-14T07:01:48;5.03;;;1.80;;
64795;SDS011;51229;51.980;6.722;2023-03-14T07:04:16;4.45;;;1.77;;
64795;SDS011;51229;51.980;6.722;2023-03-14T07:06:45;4.10;;;1.60;;
64795;SDS011;51229;51.980;6.722;2023-03-14T07:09:13;4.00;;;1.90;;
64795;SDS011;51229;51.980;6.722;2023-03-14T07:11:43;4.07;;;1.67;;
64795;SDS011;51229;51.980;6.722;2023-03-14T07:14:09;3.75;;;1.70;;
64795;SDS011;51229;51.980;6.722;2023-03-14T07:16:35;4.20;;;2.17;;
64795;SDS011;51229;51.980;6.722;2023-03-14T07:19:01;4.53;;;2.10;;
64795;SDS011;51229;51.980;6.722;2023-03-14T07:21:28;6.53;;;1.83;;
64795;SDS011;51229;51.980;6.722;2023-03-14T07:23:54;5.25;;;1.88;;
64795;SDS011;51229;51.980;6.722;2023-03-14T07:26:20;3.92;;;1.80;;
64795;SDS011;51229;51.980;6.722;2023-03-14T07:28:49;6.93;;;2.50;;
64795;SDS011;51229;51.980;6.722;2023-03-14T07:31:17;3.85;;;1.75;;
64795;SDS011;51229;51.980;6.722;2023-03-14T07:33:43;5.50;;;2.25;;
64795;SDS011;51229;51.980;6.722;2023-03-14T07:36:09;4.13;;;2.10;;
64795;SDS011;51229;51.980;6.722;2023-03-14T07:38:37;4.57;;;2.30;;
64795;SDS011;51229;51.980;6.722;2023-03-14T07:41:11;5.13;;;2.38;;
64795;SDS011;51229;51.980;6.722;2023-03-14T07:43:48;6.82;;;2.78;;
64795;SDS011;51229;51.980;6.722;2023-03-14T07:46:14;4.97;;;2.72;;
64795;SDS011;51229;51.980;6.722;2023-03-14T07:48:40;5.35;;;2.92;;
64795;SDS011;51229;51.980;6.722;2023-03-14T07:51:06;6.55;;;2.70;;
64795;SDS011;51229;51.980;6.722;2023-03-14T07:53:32;6.18;;;2.85;;
64795;SDS011;51229;51.980;6.722;2023-03-14T07:55:57;6.00;;;2.80;;
64795;SDS011;51229;51.980;6.722;2023-03-14T07:58:23;5.30;;;2.15;;
64795;SDS011;51229;51.980;6.722;2023-03-14T08:00:50;7.28;;;2.67;;
64795;SDS011;51229;51.980;6.722;2023-03-14T08:03:16;6.93;;;2.70;;
64795;SDS011;51229;51.980;6.722;2023-03-14T08:05:43;4.68;;;2.30;;
64795;SDS011;51229;51.980;6.722;2023-03-14T08:08:09;5.05;;;2.30;;
64795;SDS011;51229;51.980;6.722;2023-03-14T08:10:35;5.32;;;2.17;;
64795;SDS011;51229;51.980;6.722;2023-03-14T08:13:00;5.85;;;2.22;;
64795;SDS011;51229;51.980;6.722;2023-03-14T08:15:26;5.85;;;2.50;;
64795;SDS011;51229;51.980;6.722;2023-03-14T08:17:54;5.70;;;2.42;;
64795;SDS011;51229;51.980;6.722;2023-03-14T08:20:20;5.13;;;2.20;;
64795;SDS011;51229;51.980;6.722;2023-03-14T08:22:47;4.72;;;2.42;;
64795;SDS011;51229;51.980;6.722;2023-03-14T08:25:14;5.97;;;2.60;;
64795;SDS011;51229;51.980;6.722;2023-03-14T08:27:40;5.95;;;2.42;;
64795;SDS011;51229;51.980;6.722;2023-03-14T08:30:11;5.07;;;2.50;;
64795;SDS011;51229;51.980;6.722;2023-03-14T08:32:38;6.13;;;2.22;;
64795;SDS011;51229;51.980;6.722;2023-03-14T08:35:04;5.78;;;2.90;;
64795;SDS011;51229;51.980;6.722;2023-03-14T08:37:31;5.75;;;2.20;;
64795;SDS011;51229;51.980;6.722;2023-03-14T08:39:57;5.65;;;2.20;;
64795;SDS011;51229;51.980;6.722;2023-03-14T08:42:23;2.90;;;1.10;;
64795;SDS011;51229;51.980;6.722;2023-03-14T08:44:50;1.83;;;0.90;;
64795;SDS011;51229;51.980;6.722;2023-03-14T08:47:16;2.95;;;1.02;;
64795;SDS011;51229;51.980;6.722;2023-03-14T08:49:42;1.10;;;0.68;;
64795;SDS011;51229;51.980;6.722;2023-03-14T08:52:07;3.42;;;1.13;;
64795;SDS011;51229;51.980;6.722;2023-03-14T08:54:33;1.50;;;0.98;;
64795;SDS011;51229;51.980;6.722;2023-03-14T08:56:59;2.83;;;0.77;;
64795;SDS011;51229;51.980;6.722;2023-03-14T08:59:25;1.67;;;0.80;;
64795;SDS011;51229;51.980;6.722;2023-03-14T09:01:50;2.10;;;0.80;;
64795;SDS011;51229;51.980;6.722;2023-03-14T09:04:16;0.80;;;0.60;;
64795;SDS011;51229;51.980;6.722;2023-03-14T09:06:42;1.98;;;0.80;;
64795;SDS011;51229;51.980;6.722;2023-03-14T09:09:08;0.40;;;0.40;;
64795;SDS011;51229;51.980;6.722;2023-03-14T09:11:34;0.95;;;0.60;;
64795;SDS011;51229;51.980;6.722;2023-03-14T09:13:59;2.83;;;0.60;;
64795;SDS011;51229;51.980;6.722;2023-03-14T09:16:26;1.33;;;0.50;;
64795;SDS011;51229;51.980;6.722;2023-03-14T09:18:51;2.40;;;0.68;;
64795;SDS011;51229;51.980;6.722;2023-03-14T09:21:20;0.85;;;0.65;;
64795;SDS011;51229;51.980;6.722;2023-03-14T09:23:46;1.13;;;0.60;;
64795;SDS011;51229;51.980;6.722;2023-03-14T09:26:12;2.20;;;0.77;;
64795;SDS011;51229;51.980;6.722;2023-03-14T09:28:37;1.33;;;0.75;;
64795;SDS011;51229;51.980;6.722;2023-03-14T09:31:10;0.95;;;0.63;;
64795;SDS011;51229;51.980;6.722;2023-03-14T09:33:37;2.33;;;0.80;;
64795;SDS011;51229;51.980;6.722;2023-03-14T09:36:03;3.75;;;1.00;;
64795;SDS011;51229;51.980;6.722;2023-03-14T09:38:30;2.15;;;0.90;;
64795;SDS011;51229;51.980;6.722;2023-03-14T09:40:58;2.85;;;1.30;;
64795;SDS011;51229;51.980;6.722;2023-03-14T09:43:25;4.50;;;1.33;;
64795;SDS011;51229;51.980;6.722;2023-03-14T09:45:54;1.48;;;0.65;;
64795;SDS011;51229;51.980;6.722;2023-03-14T09:48:22;3.15;;;1.27;;
64795;SDS011;51229;51.980;6.722;2023-03-14T09:50:53;2.28;;;0.73;;
64795;SDS011;51229;51.980;6.722;2023-03-14T09:53:22;0.93;;;0.40;;
64795;SDS011;51229;51.980;6.722;2023-03-14T09:55:51;2.65;;;0.80;;
64795;SDS011;51229;51.980;6.722;2023-03-14T09:58:22;0.82;;;0.47;;
64795;SDS011;51229;51.980;6.722;2023-03-14T10:00:49;1.63;;;0.70;;
64795;SDS011;51229;51.980;6.722;2023-03-14T10:03:22;1.02;;;0.60;;
64795;SDS011;51229;51.980;6.722;2023-03-14T10:05:48;0.88;;;0.50;;
64795;SDS011;51229;51.980;6.722;2023-03-14T10:08:14;1.67;;;0.70;;
64795;SDS011;51229;51.980;6.722;2023-03-14T10:10:40;4.82;;;0.60;;
64795;SDS011;51229;51.980;6.722;2023-03-14T10:15:54;3.67;;;0.60;;
64795;SDS011;51229;51.980;6.722;2023-03-14T10:18:29;0.30;;;0.30;;
64795;SDS011;51229;51.980;6.722;2023-03-14T10:23:50;2.33;;;0.90;;
64795;SDS011;51229;51.980;6.722;2023-03-14T10:26:17;1.05;;;0.40;;
64795;SDS011;51229;51.980;6.722;2023-03-14T10:28:52;1.00;;;0.52;;
64795;SDS011;51229;51.980;6.722;2023-03-14T10:31:25;3.05;;;0.57;;
64795;SDS011;51229;51.980;6.722;2023-03-14T10:34:02;2.72;;;0.80;;
64795;SDS011;51229;51.980;6.722;2023-03-14T10:36:29;1.80;;;0.60;;
64795;SDS011;51229;51.980;6.722;2023-03-14T10:39:59;1.67;;;0.70;;
64795;SDS011;51229;51.980;6.722;2023-03-14T10:41:54;0.88;;;0.40;;
64795;SDS011;51229;51.980;6.722;2023-03-14T10:44:26;3.05;;;0.80;;
64795;SDS011;51229;51.980;6.722;2023-03-14T10:46:56;1.65;;;0.43;;
64795;SDS011;51229;51.980;6.722;2023-03-14T10:49:36;1.60;;;0.60;;
64795;SDS011;51229;51.980;6.722;2023-03-14T10:52:21;2.72;;;0.75;;
64795;SDS011;51229;51.980;6.722;2023-03-14T10:54:59;0.52;;;0.35;;
64795;SDS011;51229;51.980;6.722;2023-03-14T10:57:26;1.83;;;0.68;;
64795;SDS011;51229;51.980;6.722;2023-03-14T10:59:53;0.98;;;0.32;;
64795;SDS011;51229;51.980;6.722;2023-03-14T11:05:24;1.48;;;0.60;;
64795;SDS011;51229;51.980;6.722;2023-03-14T11:08:00;4.47;;;1.05;;
64795;SDS011;51229;51.980;6.722;2023-03-14T11:10:48;5.07;;;1.00;;
64795;SDS011;51229;51.980;6.722;2023-03-14T11:13:22;6.70;;;0.98;;
64795;SDS011;51229;51.980;6.722;2023-03-14T11:19:55;5.43;;;0.95;;
64795;SDS011;51229;51.980;6.722;2023-03-14T11:41:15;4.45;;;1.00;;
64795;SDS011;51229;51.980;6.722;2023-03-14T11:43:48;2.17;;;0.60;;
64795;SDS011;51229;51.980;6.722;2023-03-14T11:51:27;2.00;;;1.00;;
64795;SDS011;51229;51.980;6.722;2023-03-14T12:02:04;8.60;;;1.42;;
64795;SDS011;51229;51.980;6.722;2023-03-14T12:04:40;4.57;;;1.25;;
64795;SDS011;51229;51.980;6.722;2023-03-14T12:07:29;8.43;;;1.40;;
64795;SDS011;51229;51.980;6.722;2023-03-14T12:10:01;5.95;;;1.17;;
64795;SDS011;51229;51.980;6.722;2023-03-14T12:12:27;2.55;;;0.90;;
64795;SDS011;51229;51.980;6.722;2023-03-14T12:14:56;9.65;;;1.55;;
64795;SDS011;51229;51.980;6.722;2023-03-14T12:17:25;13.20;;;2.60;;
64795;SDS011;51229;51.980;6.722;2023-03-14T12:22:44;12.02;;;1.70;;
64795;SDS011;51229;51.980;6.722;2023-03-14T12:25:26;9.77;;;2.07;;
64795;SDS011;51229;51.980;6.722;2023-03-14T12:30:29;6.60;;;1.65;;
64795;SDS011;51229;51.980;6.722;2023-03-14T12:43:45;14.93;;;2.03;;
64795;SDS011;51229;51.980;6.722;2023-03-14T12:48:45;12.20;;;2.45;;
64795;SDS011;51229;51.980;6.722;2023-03-14T12:51:29;6.15;;;1.23;;
64795;SDS011;51229;51.980;6.722;2023-03-14T12:59:32;3.72;;;1.40;;
64795;SDS011;51229;51.980;6.722;2023-03-14T13:04:35;4.72;;;0.95;;
64795;SDS011;51229;51.980;6.722;2023-03-14T13:12:37;6.82;;;1.65;;
64795;SDS011;51229;51.980;6.722;2023-03-14T13:15:07;2.72;;;0.93;;
64795;SDS011;51229;51.980;6.722;2023-03-14T13:17:53;4.68;;;1.17;;
64795;SDS011;51229;51.980;6.722;2023-03-14T13:20:28;7.00;;;1.40;;
64795;SDS011;51229;51.980;6.722;2023-03-14T13:23:00;9.30;;;1.30;;
64795;SDS011;51229;51.980;6.722;2023-03-14T13:25:31;8.10;;;1.42;;
64795;SDS011;51229;51.980;6.722;2023-03-14T13:27:58;7.55;;;1.30;;
64795;SDS011;51229;51.980;6.722;2023-03-14T13:30:26;6.10;;;1.60;;
64795;SDS011;51229;51.980;6.722;2023-03-14T13:32:53;5.47;;;1.27;;
64795;SDS011;51229;51.980;6.722;2023-03-14T13:35:22;5.95;;;1.10;;
64795;SDS011;51229;51.980;6.722;2023-03-14T13:37:55;5.82;;;0.90;;
64795;SDS011;51229;51.980;6.722;2023-03-14T13:40:28;5.22;;;1.13;;
64795;SDS011;51229;51.980;6.722;2023-03-14T13:42:59;4.07;;;1.10;;
64795;SDS011;51229;51.980;6.722;2023-03-14T13:45:28;6.82;;;1.52;;
64795;SDS011;51229;51.980;6.722;2023-03-14T13:47:53;10.48;;;1.52;;
64795;SDS011;51229;51.980;6.722;2023-03-14T13:50:19;8.98;;;1.70;;
64795;SDS011;51229;51.980;6.722;2023-03-14T13:52:45;8.52;;;1.60;;
64795;SDS011;51229;51.980;6.722;2023-03-14T13:55:17;6.78;;;2.35;;
64795;SDS011;51229;51.980;6.722;2023-03-14T13:57:47;3.50;;;1.00;;
64795;SDS011;51229;51.980;6.722;2023-03-14T14:00:20;5.78;;;1.27;;
64795;SDS011;51229;51.980;6.722;2023-03-14T14:02:53;4.75;;;1.25;;
64795;SDS011;51229;51.980;6.722;2023-03-14T14:05:20;7.28;;;1.65;;
64795;SDS011;51229;51.980;6.722;2023-03-14T14:07:46;5.28;;;1.40;;
64795;SDS011;51229;51.980;6.722;2023-03-14T14:10:39;6.97;;;2.08;;
64795;SDS011;51229;51.980;6.722;2023-03-14T14:13:06;3.60;;;1.40;;
64795;SDS011;51229;51.980;6.722;2023-03-14T14:18:09;2.75;;;1.08;;
64795;SDS011;51229;51.980;6.722;2023-03-14T14:20:39;2.97;;;1.02;;
64795;SDS011;51229;51.980;6.722;2023-03-14T14:23:12;5.68;;;1.17;;
64795;SDS011;51229;51.980;6.722;2023-03-14T14:25:42;3.63;;;1.50;;
64795;SDS011;51229;51.980;6.722;2023-03-14T14:28:25;5.13;;;1.83;;
64795;SDS011;51229;51.980;6.722;2023-03-14T14:33:56;5.63;;;1.33;;
64795;SDS011;51229;51.980;6.722;2023-03-14T14:36:30;4.90;;;1.33;;
64795;SDS011;51229;51.980;6.722;2023-03-14T14:39:10;3.75;;;1.95;;
64795;SDS011;51229;51.980;6.722;2023-03-14T14:41:49;5.65;;;1.73;;
64795;SDS011;51229;51.980;6.722;2023-03-14T14:44:18;5.60;;;1.30;;
64795;SDS011;51229;51.980;6.722;2023-03-14T14:46:54;5.97;;;3.15;;
64795;SDS011;51229;51.980;6.722;2023-03-14T14:49:27;2.55;;;1.10;;
64795;SDS011;51229;51.980;6.722;2023-03-14T14:51:59;5.38;;;1.67;;
64795;SDS011;51229;51.980;6.722;2023-03-14T14:54:38;4.40;;;1.35;;
64795;SDS011;51229;51.980;6.722;2023-03-14T14:57:41;3.92;;;1.17;;
64795;SDS011;51229;51.980;6.722;2023-03-14T15:00:19;6.45;;;1.50;;
64795;SDS011;51229;51.980;6.722;2023-03-14T15:02:59;5.82;;;1.27;;
64795;SDS011;51229;51.980;6.722;2023-03-14T15:05:26;3.90;;;1.10;;
64795;SDS011;51229;51.980;6.722;2023-03-14T15:07:55;4.95;;;1.35;;
64795;SDS011;51229;51.980;6.722;2023-03-14T15:10:21;2.90;;;1.10;;
64795;SDS011;51229;51.980;6.722;2023-03-14T15:12:48;3.75;;;1.10;;
64795;SDS011;51229;51.980;6.722;2023-03-14T15:15:14;4.65;;;1.13;;
64795;SDS011;51229;51.980;6.722;2023-03-14T15:17:41;4.53;;;1.17;;
64795;SDS011;51229;51.980;6.722;2023-03-14T15:20:10;6.13;;;1.30;;
64795;SDS011;51229;51.980;6.722;2023-03-14T15:22:38;3.03;;;1.35;;
64795;SDS011;51229;51.980;6.722;2023-03-14T15:25:05;6.25;;;1.55;;
64795;SDS011;51229;51.980;6.722;2023-03-14T15:27:31;4.72;;;1.55;;
64795;SDS011;51229;51.980;6.722;2023-03-14T15:29:57;5.85;;;1.42;;
64795;SDS011;51229;51.980;6.722;2023-03-14T15:32:24;7.22;;;1.30;;
64795;SDS011;51229;51.980;6.722;2023-03-14T15:34:52;5.38;;;1.25;;
64795;SDS011;51229;51.980;6.722;2023-03-14T15:37:20;8.18;;;1.63;;
64795;SDS011;51229;51.980;6.722;2023-03-14T15:39:46;4.10;;;1.40;;
64795;SDS011;51229;51.980;6.722;2023-03-14T15:42:12;6.40;;;1.20;;
64795;SDS011;51229;51.980;6.722;2023-03-14T15:44:38;4.38;;;1.10;;
64795;SDS011;51229;51.980;6.722;2023-03-14T15:47:04;5.90;;;1.48;;
64795;SDS011;51229;51.980;6.722;2023-03-14T15:49:31;9.45;;;1.52;;
64795;SDS011;51229;51.980;6.722;2023-03-14T15:51:57;7.97;;;1.40;;
64795;SDS011;51229;51.980;6.722;2023-03-14T15:54:23;5.57;;;1.00;;
64795;SDS011;51229;51.980;6.722;2023-03-14T15:56:53;2.88;;;1.23;;
64795;SDS011;51229;51.980;6.722;2023-03-14T15:59:19;6.70;;;1.30;;
64795;SDS011;51229;51.980;6.722;2023-03-14T16:01:45;5.60;;;1.38;;
64795;SDS011;51229;51.980;6.722;2023-03-14T16:04:13;4.30;;;1.15;;
64795;SDS011;51229;51.980;6.722;2023-03-14T16:06:39;5.75;;;0.98;;
64795;SDS011;51229;51.980;6.722;2023-03-14T16:09:05;5.25;;;1.33;;
64795;SDS011;51229;51.980;6.722;2023-03-14T16:11:31;4.75;;;1.10;;
64795;SDS011;51229;51.980;6.722;2023-03-14T16:13:57;3.63;;;1.00;;
64795;SDS011;51229;51.980;6.722;2023-03-14T16:16:23;3.42;;;1.00;;
64795;SDS011;51229;51.980;6.722;2023-03-14T16:18:49;5.72;;;1.10;;
64795;SDS011;51229;51.980;6.722;2023-03-14T16:21:15;4.60;;;0.93;;
64795;SDS011;51229;51.980;6.722;2023-03-14T16:23:43;4.88;;;1.30;;
64795;SDS011;51229;51.980;6.722;2023-03-14T16:26:11;4.95;;;1.17;;
64795;SDS011;51229;51.980;6.722;2023-03-14T16:28:39;3.88;;;1.02;;
64795;SDS011;51229;51.980;6.722;2023-03-14T16:31:06;2.67;;;0.90;;
64795;SDS011;51229;51.980;6.722;2023-03-14T16:33:34;2.15;;;0.73;;
64795;SDS011;51229;51.980;6.722;2023-03-14T16:36:02;3.78;;;1.23;;
64795;SDS011;51229;51.980;6.722;2023-03-14T16:38:32;2.75;;;0.90;;